sensor_id;sensor_type;location;lat;lon;timestamp;P1;durP1;ratioP1;P2;durP2;ratioP2
71777;SDS011;59609;52.430;4.668;2023-04-01T00:01:57;44.03;;;9.10;;
71777;SDS011;59609;52.430;4.668;2023-04-01T00:04:22;35.40;;;6.60;;
71777;SDS011;59609;52.430;4.668;2023-04-01T00:06:48;35.45;;;7.05;;
71777;SDS011;59609;52.430;4.668;2023-04-01T00:09:13;56.65;;;8.05;;
71777;SDS011;59609;52.430;4.668;2023-04-01T00:11:39;50.72;;;7.00;;
71777;SDS011;59609;52.430;4.668;2023-04-01T00:14:05;53.97;;;6.68;;
71777;SDS011;59609;52.430;4.668;2023-04-01T00:16:32;51.55;;;7.88;;
71777;SDS011;59609;52.430;4.668;2023-04-01T00:18:58;75.28;;;7.45;;
71777;SDS011;59609;52.430;4.668;2023-04-01T00:21:24;63.70;;;7.82;;
71777;SDS011;59609;52.430;4.668;2023-04-01T00:23:50;43.47;;;6.80;;
71777;SDS011;59609;52.430;4.668;2023-04-01T00:26:16;43.55;;;7.20;;
71777;SDS011;59609;52.430;4.668;2023-04-01T00:28:44;40.97;;;7.70;;
71777;SDS011;59609;52.430;4.668;2023-04-01T00:31:12;41.67;;;8.38;;
71777;SDS011;59609;52.430;4.668;2023-04-01T00:33:38;30.75;;;7.75;;
71777;SDS011;59609;52.430;4.668;2023-04-01T00:36:26;42.63;;;9.48;;
71777;SDS011;59609;52.430;4.668;2023-04-01T00:38:51;38.03;;;10.07;;
71777;SDS011;59609;52.430;4.668;2023-04-01T00:41:17;36.58;;;10.75;;
71777;SDS011;59609;52.430;4.668;2023-04-01T00:43:45;29.65;;;10.38;;
71777;SDS011;59609;52.430;4.668;2023-04-01T00:46:12;36.03;;;10.85;;
71777;SDS011;59609;52.430;4.668;2023-04-01T00:48:38;31.90;;;10.30;;
71777;SDS011;59609;52.430;4.668;2023-04-01T00:51:14;29.85;;;10.20;;
71777;SDS011;59609;52.430;4.668;2023-04-01T00:53:46;36.80;;;10.60;;
71777;SDS011;59609;52.430;4.668;2023-04-01T00:56:14;38.47;;;11.45;;
71777;SDS011;59609;52.430;4.668;2023-04-01T00:58:44;30.25;;;10.32;;
71777;SDS011;59609;52.430;4.668;2023-04-01T01:01:13;30.35;;;9.43;;
71777;SDS011;59609;52.430;4.668;2023-04-01T01:03:38;38.83;;;11.75;;
71777;SDS011;59609;52.430;4.668;2023-04-01T01:09:22;38.95;;;11.43;;
71777;SDS011;59609;52.430;4.668;2023-04-01T01:27:29;26.70;;;10.65;;
71777;SDS011;59609;52.430;4.668;2023-04-01T01:37:44;34.60;;;12.30;;
71777;SDS011;59609;52.430;4.668;2023-04-01T01:40:12;42.58;;;14.27;;
71777;SDS011;59609;52.430;4.668;2023-04-01T01:42:42;43.33;;;15.52;;
71777;SDS011;59609;52.430;4.668;2023-04-01T01:45:11;51.47;;;15.68;;
71777;SDS011;59609;52.430;4.668;2023-04-01T01:47:39;35.40;;;14.52;;
71777;SDS011;59609;52.430;4.668;2023-04-01T01:50:06;39.58;;;15.23;;
71777;SDS011;59609;52.430;4.668;2023-04-01T01:52:34;34.92;;;14.85;;
71777;SDS011;59609;52.430;4.668;2023-04-01T01:54:59;33.05;;;12.27;;
71777;SDS011;59609;52.430;4.668;2023-04-01T01:57:26;31.38;;;13.13;;
71777;SDS011;59609;52.430;4.668;2023-04-01T02:00:00;31.50;;;13.10;;
71777;SDS011;59609;52.430;4.668;2023-04-01T02:02:38;33.15;;;12.25;;
71777;SDS011;59609;52.430;4.668;2023-04-01T02:05:05;29.83;;;11.15;;
71777;SDS011;59609;52.430;4.668;2023-04-01T02:07:34;22.45;;;10.45;;
71777;SDS011;59609;52.430;4.668;2023-04-01T02:10:01;19.90;;;8.07;;
71777;SDS011;59609;52.430;4.668;2023-04-01T02:12:27;14.35;;;6.95;;
71777;SDS011;59609;52.430;4.668;2023-04-01T02:14:55;15.57;;;7.13;;
71777;SDS011;59609;52.430;4.668;2023-04-01T02:17:26;16.90;;;6.90;;
71777;SDS011;59609;52.430;4.668;2023-04-01T02:20:07;16.65;;;5.95;;
71777;SDS011;59609;52.430;4.668;2023-04-01T02:22:38;16.48;;;6.50;;
71777;SDS011;59609;52.430;4.668;2023-04-01T02:25:08;12.90;;;7.00;;
71777;SDS011;59609;52.430;4.668;2023-04-01T02:27:36;16.00;;;6.97;;
71777;SDS011;59609;52.430;4.668;2023-04-01T02:30:03;17.25;;;7.07;;
71777;SDS011;59609;52.430;4.668;2023-04-01T02:32:29;13.45;;;6.88;;
71777;SDS011;59609;52.430;4.668;2023-04-01T02:34:58;15.50;;;6.05;;
71777;SDS011;59609;52.430;4.668;2023-04-01T02:37:25;16.27;;;6.72;;
71777;SDS011;59609;52.430;4.668;2023-04-01T02:39:50;13.80;;;6.22;;
71777;SDS011;59609;52.430;4.668;2023-04-01T02:42:16;13.32;;;6.72;;
71777;SDS011;59609;52.430;4.668;2023-04-01T02:44:41;14.13;;;6.15;;
71777;SDS011;59609;52.430;4.668;2023-04-01T02:47:06;17.17;;;5.75;;
71777;SDS011;59609;52.430;4.668;2023-04-01T02:49:32;17.20;;;7.55;;
71777;SDS011;59609;52.430;4.668;2023-04-01T02:51:57;15.55;;;6.97;;
71777;SDS011;59609;52.430;4.668;2023-04-01T02:54:22;20.73;;;7.65;;
71777;SDS011;59609;52.430;4.668;2023-04-01T02:56:48;16.38;;;7.53;;
71777;SDS011;59609;52.430;4.668;2023-04-01T02:59:13;14.35;;;7.28;;
71777;SDS011;59609;52.430;4.668;2023-04-01T03:01:38;13.60;;;6.93;;
71777;SDS011;59609;52.430;4.668;2023-04-01T03:04:04;15.02;;;7.47;;
71777;SDS011;59609;52.430;4.668;2023-04-01T03:06:30;14.10;;;6.82;;
71777;SDS011;59609;52.430;4.668;2023-04-01T03:08:55;16.48;;;7.78;;
71777;SDS011;59609;52.430;4.668;2023-04-01T03:11:21;20.23;;;9.10;;
71777;SDS011;59609;52.430;4.668;2023-04-01T03:13:47;20.60;;;8.20;;
71777;SDS011;59609;52.430;4.668;2023-04-01T03:16:12;21.70;;;8.57;;
71777;SDS011;59609;52.430;4.668;2023-04-01T03:18:40;17.75;;;8.00;;
71777;SDS011;59609;52.430;4.668;2023-04-01T03:21:16;17.85;;;8.43;;
71777;SDS011;59609;52.430;4.668;2023-04-01T03:23:43;19.58;;;9.45;;
71777;SDS011;59609;52.430;4.668;2023-04-01T03:26:09;18.38;;;8.88;;
71777;SDS011;59609;52.430;4.668;2023-04-01T03:28:34;21.92;;;9.05;;
71777;SDS011;59609;52.430;4.668;2023-04-01T03:31:00;19.20;;;8.95;;
71777;SDS011;59609;52.430;4.668;2023-04-01T03:33:25;22.38;;;9.45;;
71777;SDS011;59609;52.430;4.668;2023-04-01T03:35:51;22.85;;;9.18;;
71777;SDS011;59609;52.430;4.668;2023-04-01T03:38:17;20.48;;;9.68;;
71777;SDS011;59609;52.430;4.668;2023-04-01T03:40:43;25.58;;;10.45;;
71777;SDS011;59609;52.430;4.668;2023-04-01T03:43:09;21.55;;;9.20;;
71777;SDS011;59609;52.430;4.668;2023-04-01T03:45:35;17.90;;;7.90;;
71777;SDS011;59609;52.430;4.668;2023-04-01T03:48:01;16.30;;;8.15;;
71777;SDS011;59609;52.430;4.668;2023-04-01T03:50:27;18.00;;;7.30;;
71777;SDS011;59609;52.430;4.668;2023-04-01T03:52:52;23.85;;;9.55;;
71777;SDS011;59609;52.430;4.668;2023-04-01T03:55:17;19.35;;;9.38;;
71777;SDS011;59609;52.430;4.668;2023-04-01T03:57:43;21.17;;;9.38;;
71777;SDS011;59609;52.430;4.668;2023-04-01T04:00:09;19.65;;;8.93;;
71777;SDS011;59609;52.430;4.668;2023-04-01T04:02:35;17.27;;;8.45;;
71777;SDS011;59609;52.430;4.668;2023-04-01T04:05:01;19.55;;;9.70;;
71777;SDS011;59609;52.430;4.668;2023-04-01T04:07:26;24.67;;;9.50;;
71777;SDS011;59609;52.430;4.668;2023-04-01T04:09:52;22.30;;;9.50;;
71777;SDS011;59609;52.430;4.668;2023-04-01T04:12:17;24.88;;;8.82;;
71777;SDS011;59609;52.430;4.668;2023-04-01T04:14:42;26.40;;;9.05;;
71777;SDS011;59609;52.430;4.668;2023-04-01T04:17:09;23.05;;;8.68;;
71777;SDS011;59609;52.430;4.668;2023-04-01T04:19:40;20.15;;;8.30;;
71777;SDS011;59609;52.430;4.668;2023-04-01T04:22:06;19.92;;;7.75;;
71777;SDS011;59609;52.430;4.668;2023-04-01T04:24:33;19.27;;;8.15;;
71777;SDS011;59609;52.430;4.668;2023-04-01T04:27:00;21.70;;;8.43;;
71777;SDS011;59609;52.430;4.668;2023-04-01T04:29:25;19.77;;;8.68;;
71777;SDS011;59609;52.430;4.668;2023-04-01T04:31:50;18.83;;;7.72;;
71777;SDS011;59609;52.430;4.668;2023-04-01T04:34:16;18.13;;;6.53;;
71777;SDS011;59609;52.430;4.668;2023-04-01T04:36:43;21.17;;;7.45;;
71777;SDS011;59609;52.430;4.668;2023-04-01T04:39:08;21.55;;;8.40;;
71777;SDS011;59609;52.430;4.668;2023-04-01T04:41:36;21.52;;;8.48;;
71777;SDS011;59609;52.430;4.668;2023-04-01T04:44:02;19.25;;;8.48;;
71777;SDS011;59609;52.430;4.668;2023-04-01T04:46:28;24.17;;;8.93;;
71777;SDS011;59609;52.430;4.668;2023-04-01T04:48:54;19.77;;;7.80;;
71777;SDS011;59609;52.430;4.668;2023-04-01T04:51:20;22.88;;;7.57;;
71777;SDS011;59609;52.430;4.668;2023-04-01T04:53:46;25.38;;;8.43;;
71777;SDS011;59609;52.430;4.668;2023-04-01T04:56:12;21.42;;;7.90;;
71777;SDS011;59609;52.430;4.668;2023-04-01T04:58:38;17.70;;;8.25;;
71777;SDS011;59609;52.430;4.668;2023-04-01T05:01:11;17.92;;;8.05;;
71777;SDS011;59609;52.430;4.668;2023-04-01T05:03:38;25.45;;;8.43;;
71777;SDS011;59609;52.430;4.668;2023-04-01T05:06:03;25.42;;;8.48;;
71777;SDS011;59609;52.430;4.668;2023-04-01T05:08:29;19.48;;;7.80;;
71777;SDS011;59609;52.430;4.668;2023-04-01T05:10:55;27.65;;;9.05;;
71777;SDS011;59609;52.430;4.668;2023-04-01T05:13:22;24.30;;;8.85;;
71777;SDS011;59609;52.430;4.668;2023-04-01T05:15:48;22.17;;;8.88;;
71777;SDS011;59609;52.430;4.668;2023-04-01T05:18:13;21.48;;;7.53;;
71777;SDS011;59609;52.430;4.668;2023-04-01T05:20:39;26.77;;;8.82;;
71777;SDS011;59609;52.430;4.668;2023-04-01T05:23:10;30.95;;;9.70;;
71777;SDS011;59609;52.430;4.668;2023-04-01T05:25:37;30.13;;;10.05;;
71777;SDS011;59609;52.430;4.668;2023-04-01T05:28:03;24.02;;;9.70;;
71777;SDS011;59609;52.430;4.668;2023-04-01T05:30:28;30.95;;;11.00;;
71777;SDS011;59609;52.430;4.668;2023-04-01T05:32:54;30.13;;;10.00;;
71777;SDS011;59609;52.430;4.668;2023-04-01T05:35:19;28.10;;;10.30;;
71777;SDS011;59609;52.430;4.668;2023-04-01T05:37:45;30.25;;;9.23;;
71777;SDS011;59609;52.430;4.668;2023-04-01T05:40:10;34.35;;;10.13;;
71777;SDS011;59609;52.430;4.668;2023-04-01T05:42:36;32.40;;;9.85;;
71777;SDS011;59609;52.430;4.668;2023-04-01T05:45:01;24.60;;;9.13;;
71777;SDS011;59609;52.430;4.668;2023-04-01T05:47:27;23.15;;;9.15;;
71777;SDS011;59609;52.430;4.668;2023-04-01T05:49:52;28.60;;;9.77;;
71777;SDS011;59609;52.430;4.668;2023-04-01T05:52:18;28.55;;;9.15;;
71777;SDS011;59609;52.430;4.668;2023-04-01T05:54:43;26.52;;;10.40;;
71777;SDS011;59609;52.430;4.668;2023-04-01T05:57:08;27.20;;;9.73;;
71777;SDS011;59609;52.430;4.668;2023-04-01T05:59:34;30.02;;;9.77;;
71777;SDS011;59609;52.430;4.668;2023-04-01T06:02:02;23.13;;;9.10;;
71777;SDS011;59609;52.430;4.668;2023-04-01T06:04:28;26.10;;;9.60;;
71777;SDS011;59609;52.430;4.668;2023-04-01T06:06:59;26.98;;;10.25;;
71777;SDS011;59609;52.430;4.668;2023-04-01T06:09:28;26.00;;;9.55;;
71777;SDS011;59609;52.430;4.668;2023-04-01T06:17:09;31.88;;;9.88;;
71777;SDS011;59609;52.430;4.668;2023-04-01T06:30:43;27.33;;;11.77;;
71777;SDS011;59609;52.430;4.668;2023-04-01T06:41:38;31.48;;;13.75;;
71777;SDS011;59609;52.430;4.668;2023-04-01T06:55:29;28.10;;;12.20;;
71777;SDS011;59609;52.430;4.668;2023-04-01T06:58:03;25.77;;;11.82;;
71777;SDS011;59609;52.430;4.668;2023-04-01T07:00:32;20.88;;;11.77;;
71777;SDS011;59609;52.430;4.668;2023-04-01T07:05:35;20.75;;;11.60;;
71777;SDS011;59609;52.430;4.668;2023-04-01T07:08:02;15.85;;;9.75;;
71777;SDS011;59609;52.430;4.668;2023-04-01T07:13:20;22.63;;;11.15;;
71777;SDS011;59609;52.430;4.668;2023-04-01T07:16:07;22.23;;;10.35;;
71777;SDS011;59609;52.430;4.668;2023-04-01T07:21:36;26.60;;;12.52;;
71777;SDS011;59609;52.430;4.668;2023-04-01T07:24:27;23.10;;;10.65;;
71777;SDS011;59609;52.430;4.668;2023-04-01T07:26:57;24.15;;;11.65;;
71777;SDS011;59609;52.430;4.668;2023-04-01T07:29:23;30.00;;;11.98;;
71777;SDS011;59609;52.430;4.668;2023-04-01T07:34:28;23.85;;;11.23;;
71777;SDS011;59609;52.430;4.668;2023-04-01T07:37:13;23.65;;;11.57;;
71777;SDS011;59609;52.430;4.668;2023-04-01T07:52:37;19.80;;;11.38;;
71777;SDS011;59609;52.430;4.668;2023-04-01T07:55:18;17.70;;;11.02;;
71777;SDS011;59609;52.430;4.668;2023-04-01T07:57:56;19.02;;;11.05;;
71777;SDS011;59609;52.430;4.668;2023-04-01T08:03:14;17.52;;;10.75;;
71777;SDS011;59609;52.430;4.668;2023-04-01T08:13:53;15.57;;;9.98;;
71777;SDS011;59609;52.430;4.668;2023-04-01T08:22:22;13.00;;;9.48;;
71777;SDS011;59609;52.430;4.668;2023-04-01T08:24:52;12.63;;;9.20;;
71777;SDS011;59609;52.430;4.668;2023-04-01T08:27:34;10.55;;;9.30;;
71777;SDS011;59609;52.430;4.668;2023-04-01T08:32:43;9.45;;;8.07;;
71777;SDS011;59609;52.430;4.668;2023-04-01T08:37:51;11.88;;;8.30;;
71777;SDS011;59609;52.430;4.668;2023-04-01T08:41:05;10.88;;;8.02;;
71777;SDS011;59609;52.430;4.668;2023-04-01T08:52:11;10.00;;;7.90;;
71777;SDS011;59609;52.430;4.668;2023-04-01T09:36:02;14.93;;;9.80;;
71777;SDS011;59609;52.430;4.668;2023-04-01T09:41:23;12.32;;;8.65;;
71777;SDS011;59609;52.430;4.668;2023-04-01T09:44:10;10.13;;;8.50;;
71777;SDS011;59609;52.430;4.668;2023-04-01T10:06:47;9.95;;;8.85;;
71777;SDS011;59609;52.430;4.668;2023-04-01T10:23:20;9.18;;;7.35;;
71777;SDS011;59609;52.430;4.668;2023-04-01T10:36:56;11.55;;;7.80;;
71777;SDS011;59609;52.430;4.668;2023-04-01T10:50:58;12.57;;;8.57;;
71777;SDS011;59609;52.430;4.668;2023-04-01T10:53:37;9.90;;;8.90;;
71777;SDS011;59609;52.430;4.668;2023-04-01T11:19:00;6.28;;;4.97;;
71777;SDS011;59609;52.430;4.668;2023-04-01T11:41:15;8.77;;;7.68;;
71777;SDS011;59609;52.430;4.668;2023-04-01T11:46:44;9.32;;;8.27;;
71777;SDS011;59609;52.430;4.668;2023-04-01T11:52:25;9.70;;;8.30;;
71777;SDS011;59609;52.430;4.668;2023-04-01T11:55:28;8.98;;;8.02;;
71777;SDS011;59609;52.430;4.668;2023-04-01T12:01:49;8.95;;;7.75;;
71777;SDS011;59609;52.430;4.668;2023-04-01T12:04:30;8.82;;;7.93;;
71777;SDS011;59609;52.430;4.668;2023-04-01T12:09:30;9.55;;;8.38;;
71777;SDS011;59609;52.430;4.668;2023-04-01T12:17:34;8.75;;;7.35;;
71777;SDS011;59609;52.430;4.668;2023-04-01T12:25:26;8.88;;;7.88;;
71777;SDS011;59609;52.430;4.668;2023-04-01T12:28:15;12.65;;;8.23;;
71777;SDS011;59609;52.430;4.668;2023-04-01T12:36:23;9.82;;;8.93;;
71777;SDS011;59609;52.430;4.668;2023-04-01T12:55:39;8.75;;;7.55;;
71777;SDS011;59609;52.430;4.668;2023-04-01T13:00:58;8.05;;;7.25;;
71777;SDS011;59609;52.430;4.668;2023-04-01T13:16:55;7.53;;;6.47;;
71777;SDS011;59609;52.430;4.668;2023-04-01T13:22:15;10.35;;;9.38;;
71777;SDS011;59609;52.430;4.668;2023-04-01T13:27:16;10.07;;;9.07;;
71777;SDS011;59609;52.430;4.668;2023-04-01T13:35:17;12.10;;;8.88;;
71777;SDS011;59609;52.430;4.668;2023-04-01T13:38:23;10.10;;;8.18;;
71777;SDS011;59609;52.430;4.668;2023-04-01T13:41:13;11.40;;;8.65;;
71777;SDS011;59609;52.430;4.668;2023-04-01T13:43:50;9.82;;;8.77;;
71777;SDS011;59609;52.430;4.668;2023-04-01T14:16:47;8.93;;;8.02;;
71777;SDS011;59609;52.430;4.668;2023-04-01T14:22:41;9.13;;;8.05;;
71777;SDS011;59609;52.430;4.668;2023-04-01T14:38:35;10.30;;;7.80;;
71777;SDS011;59609;52.430;4.668;2023-04-01T14:41:28;10.30;;;6.68;;
71777;SDS011;59609;52.430;4.668;2023-04-01T14:49:48;8.95;;;8.05;;
71777;SDS011;59609;52.430;4.668;2023-04-01T14:52:23;9.43;;;7.85;;
71777;SDS011;59609;52.430;4.668;2023-04-01T14:54:53;8.05;;;7.35;;
71777;SDS011;59609;52.430;4.668;2023-04-01T14:57:30;8.93;;;8.02;;
71777;SDS011;59609;52.430;4.668;2023-04-01T15:00:01;8.60;;;7.57;;
71777;SDS011;59609;52.430;4.668;2023-04-01T15:08:10;8.68;;;7.03;;
71777;SDS011;59609;52.430;4.668;2023-04-01T15:10:43;8.38;;;7.45;;
71777;SDS011;59609;52.430;4.668;2023-04-01T15:16:35;7.75;;;6.95;;
71777;SDS011;59609;52.430;4.668;2023-04-01T15:19:35;8.77;;;7.15;;
71777;SDS011;59609;52.430;4.668;2023-04-01T15:24:56;7.55;;;6.82;;
71777;SDS011;59609;52.430;4.668;2023-04-01T15:27:56;8.57;;;7.75;;
71777;SDS011;59609;52.430;4.668;2023-04-01T15:30:38;8.77;;;7.63;;
71777;SDS011;59609;52.430;4.668;2023-04-01T15:36:28;8.20;;;7.50;;
71777;SDS011;59609;52.430;4.668;2023-04-01T15:41:35;9.85;;;6.85;;
71777;SDS011;59609;52.430;4.668;2023-04-01T15:46:56;7.95;;;5.22;;
71777;SDS011;59609;52.430;4.668;2023-04-01T15:49:37;9.07;;;6.75;;
71777;SDS011;59609;52.430;4.668;2023-04-01T16:06:26;7.57;;;6.15;;
71777;SDS011;59609;52.430;4.668;2023-04-01T16:16:57;6.75;;;6.15;;
71777;SDS011;59609;52.430;4.668;2023-04-01T16:19:59;7.30;;;6.47;;
71777;SDS011;59609;52.430;4.668;2023-04-01T16:22:39;7.10;;;6.45;;
71777;SDS011;59609;52.430;4.668;2023-04-01T16:25:17;7.07;;;6.40;;
71777;SDS011;59609;52.430;4.668;2023-04-01T16:30:46;7.25;;;6.65;;
71777;SDS011;59609;52.430;4.668;2023-04-01T16:41:46;7.32;;;6.68;;
71777;SDS011;59609;52.430;4.668;2023-04-01T16:44:31;6.70;;;6.20;;
71777;SDS011;59609;52.430;4.668;2023-04-01T16:49:47;7.63;;;6.28;;
71777;SDS011;59609;52.430;4.668;2023-04-01T16:55:00;7.93;;;6.13;;
71777;SDS011;59609;52.430;4.668;2023-04-01T16:57:43;7.63;;;6.75;;
71777;SDS011;59609;52.430;4.668;2023-04-01T17:00:44;6.70;;;5.78;;
71777;SDS011;59609;52.430;4.668;2023-04-01T17:03:13;7.18;;;6.22;;
71777;SDS011;59609;52.430;4.668;2023-04-01T17:11:52;6.93;;;6.32;;
71777;SDS011;59609;52.430;4.668;2023-04-01T17:14:32;6.07;;;5.57;;
71777;SDS011;59609;52.430;4.668;2023-04-01T17:17:27;6.40;;;5.72;;
71777;SDS011;59609;52.430;4.668;2023-04-01T17:31:05;5.13;;;2.90;;
71777;SDS011;59609;52.430;4.668;2023-04-01T17:33:46;7.50;;;3.92;;
71777;SDS011;59609;52.430;4.668;2023-04-01T17:36:36;13.23;;;5.68;;
71777;SDS011;59609;52.430;4.668;2023-04-01T17:42:15;6.15;;;3.67;;
71777;SDS011;59609;52.430;4.668;2023-04-01T17:45:04;4.75;;;3.97;;
71777;SDS011;59609;52.430;4.668;2023-04-01T17:47:55;5.90;;;3.60;;
71777;SDS011;59609;52.430;4.668;2023-04-01T17:51:02;5.05;;;4.00;;
71777;SDS011;59609;52.430;4.668;2023-04-01T17:53:45;4.32;;;3.92;;
71777;SDS011;59609;52.430;4.668;2023-04-01T18:07:30;5.20;;;4.05;;
71777;SDS011;59609;52.430;4.668;2023-04-01T18:15:44;5.85;;;4.43;;
71777;SDS011;59609;52.430;4.668;2023-04-01T18:21:12;6.07;;;3.85;;
71777;SDS011;59609;52.430;4.668;2023-04-01T18:23:45;3.63;;;3.00;;
71777;SDS011;59609;52.430;4.668;2023-04-01T18:28:56;4.53;;;4.13;;
71777;SDS011;59609;52.430;4.668;2023-04-01T18:31:32;6.97;;;4.55;;
71777;SDS011;59609;52.430;4.668;2023-04-01T18:34:06;9.55;;;5.00;;
71777;SDS011;59609;52.430;4.668;2023-04-01T18:36:47;8.32;;;4.93;;
71777;SDS011;59609;52.430;4.668;2023-04-01T18:42:41;6.40;;;4.70;;
71777;SDS011;59609;52.430;4.668;2023-04-01T18:45:19;6.57;;;4.35;;
71777;SDS011;59609;52.430;4.668;2023-04-01T18:48:00;7.80;;;4.55;;
71777;SDS011;59609;52.430;4.668;2023-04-01T18:55:59;9.98;;;5.75;;
71777;SDS011;59609;52.430;4.668;2023-04-01T19:11:55;6.25;;;5.03;;
71777;SDS011;59609;52.430;4.668;2023-04-01T19:14:52;10.65;;;5.75;;
71777;SDS011;59609;52.430;4.668;2023-04-01T19:22:42;9.90;;;5.80;;
71777;SDS011;59609;52.430;4.668;2023-04-01T19:36:37;8.63;;;5.47;;
71777;SDS011;59609;52.430;4.668;2023-04-01T19:52:48;8.18;;;5.75;;
71777;SDS011;59609;52.430;4.668;2023-04-01T20:00:52;10.10;;;5.97;;
71777;SDS011;59609;52.430;4.668;2023-04-01T20:08:58;10.05;;;6.40;;
71777;SDS011;59609;52.430;4.668;2023-04-01T20:19:44;7.07;;;5.60;;
71777;SDS011;59609;52.430;4.668;2023-04-01T20:22:29;9.15;;;5.38;;
71777;SDS011;59609;52.430;4.668;2023-04-01T20:41:23;8.05;;;5.45;;
71777;SDS011;59609;52.430;4.668;2023-04-01T20:53:14;12.57;;;6.38;;
71777;SDS011;59609;52.430;4.668;2023-04-01T20:55:53;9.52;;;6.40;;
71777;SDS011;59609;52.430;4.668;2023-04-01T21:01:46;9.25;;;5.75;;
71777;SDS011;59609;52.430;4.668;2023-04-01T21:29:09;12.95;;;7.45;;
71777;SDS011;59609;52.430;4.668;2023-04-01T21:35:00;10.40;;;6.50;;
71777;SDS011;59609;52.430;4.668;2023-04-01T22:07:37;11.75;;;6.70;;
71777;SDS011;59609;52.430;4.668;2023-04-01T22:12:53;12.57;;;6.72;;
71777;SDS011;59609;52.430;4.668;2023-04-01T22:18:13;10.23;;;6.60;;
71777;SDS011;59609;52.430;4.668;2023-04-01T22:20:56;14.40;;;6.63;;
71777;SDS011;59609;52.430;4.668;2023-04-01T22:31:29;12.68;;;7.07;;
71777;SDS011;59609;52.430;4.668;2023-04-01T22:36:54;12.02;;;7.75;;
71777;SDS011;59609;52.430;4.668;2023-04-01T22:52:46;9.98;;;5.80;;
71777;SDS011;59609;52.430;4.668;2023-04-01T22:55:19;12.13;;;6.90;;
71777;SDS011;59609;52.430;4.668;2023-04-01T22:58:03;12.15;;;7.32;;
71777;SDS011;59609;52.430;4.668;2023-04-01T23:00:37;13.35;;;6.38;;
71777;SDS011;59609;52.430;4.668;2023-04-01T23:05:48;12.82;;;6.53;;
71777;SDS011;59609;52.430;4.668;2023-04-01T23:11:28;15.75;;;6.78;;
71777;SDS011;59609;52.430;4.668;2023-04-01T23:16:57;14.68;;;7.50;;
71777;SDS011;59609;52.430;4.668;2023-04-01T23:24:56;12.80;;;6.88;;
71777;SDS011;59609;52.430;4.668;2023-04-01T23:27:35;15.00;;;7.97;;
71777;SDS011;59609;52.430;4.668;2023-04-01T23:30:45;12.50;;;6.53;;
71777;SDS011;59609;52.430;4.668;2023-04-01T23:33:21;11.52;;;6.70;;
71777;SDS011;59609;52.430;4.668;2023-04-01T23:38:17;11.90;;;6.07;;
71777;SDS011;59609;52.430;4.668;2023-04-01T23:40:44;11.30;;;6.53;;
71777;SDS011;59609;52.430;4.668;2023-04-01T23:43:21;14.90;;;6.82;;
71777;SDS011;59609;52.430;4.668;2023-04-01T23:45:50;12.63;;;6.75;;
71777;SDS011;59609;52.430;4.668;2023-04-01T23:48:17;11.50;;;6.47;;
71777;SDS011;59609;52.430;4.668;2023-04-01T23:50:47;12.27;;;6.10;;
71777;SDS011;59609;52.430;4.668;2023-04-01T23:53:16;11.43;;;5.97;;
71777;SDS011;59609;52.430;4.668;2023-04-01T23:55:45;14.15;;;6.63;;
